sensor_id;sensor_type;location;lat;lon;timestamp;temperature;humidity
19192;DHT22;9728;48.194;16.346;2023-02-01T00:03:24;10.90;65.30
19192;DHT22;9728;48.194;16.346;2023-02-01T00:08:28;10.90;64.90
19192;DHT22;9728;48.194;16.346;2023-02-01T00:13:35;10.90;65.00
19192;DHT22;9728;48.194;16.346;2023-02-01T00:18:40;10.90;65.40
19192;DHT22;9728;48.194;16.346;2023-02-01T00:23:43;10.80;65.30
19192;DHT22;9728;48.194;16.346;2023-02-01T00:28:48;10.90;65.40
19192;DHT22;9728;48.194;16.346;2023-02-01T00:33:52;10.90;65.50
19192;DHT22;9728;48.194;16.346;2023-02-01T00:38:55;10.90;65.30
19192;DHT22;9728;48.194;16.346;2023-02-01T00:44:01;10.90;65.40
19192;DHT22;9728;48.194;16.346;2023-02-01T00:49:04;10.90;65.60
19192;DHT22;9728;48.194;16.346;2023-02-01T00:54:09;10.90;65.70
19192;DHT22;9728;48.194;16.346;2023-02-01T00:59:14;11.00;65.50
19192;DHT22;9728;48.194;16.346;2023-02-01T01:04:17;11.00;66.50
19192;DHT22;9728;48.194;16.346;2023-02-01T01:09:20;10.90;66.70
19192;DHT22;9728;48.194;16.346;2023-02-01T01:14:25;11.00;66.30
19192;DHT22;9728;48.194;16.346;2023-02-01T01:19:28;11.00;66.50
19192;DHT22;9728;48.194;16.346;2023-02-01T01:24:32;11.10;66.40
19192;DHT22;9728;48.194;16.346;2023-02-01T01:29:37;11.00;66.50
19192;DHT22;9728;48.194;16.346;2023-02-01T01:34:40;11.10;66.30
19192;DHT22;9728;48.194;16.346;2023-02-01T01:39:44;11.10;66.20
19192;DHT22;9728;48.194;16.346;2023-02-01T01:45:00;11.30;66.20
19192;DHT22;9728;48.194;16.346;2023-02-01T01:50:09;11.30;66.20
19192;DHT22;9728;48.194;16.346;2023-02-01T01:55:14;11.30;65.70
19192;DHT22;9728;48.194;16.346;2023-02-01T02:00:20;11.30;65.50
19192;DHT22;9728;48.194;16.346;2023-02-01T02:05:27;11.50;65.50
19192;DHT22;9728;48.194;16.346;2023-02-01T02:10:31;11.40;65.00
19192;DHT22;9728;48.194;16.346;2023-02-01T02:15:56;11.50;65.20
19192;DHT22;9728;48.194;16.346;2023-02-01T02:21:20;11.40;65.60
19192;DHT22;9728;48.194;16.346;2023-02-01T02:26:35;11.40;66.00
19192;DHT22;9728;48.194;16.346;2023-02-01T02:32:32;11.50;65.90
19192;DHT22;9728;48.194;16.346;2023-02-01T02:37:50;11.40;66.00
19192;DHT22;9728;48.194;16.346;2023-02-01T02:43:02;11.60;65.70
19192;DHT22;9728;48.194;16.346;2023-02-01T02:48:28;11.50;66.00
19192;DHT22;9728;48.194;16.346;2023-02-01T02:53:38;11.40;66.10
19192;DHT22;9728;48.194;16.346;2023-02-01T02:59:02;11.40;66.20
19192;DHT22;9728;48.194;16.346;2023-02-01T03:04:24;11.50;66.30
19192;DHT22;9728;48.194;16.346;2023-02-01T03:09:31;11.50;66.00
19192;DHT22;9728;48.194;16.346;2023-02-01T03:14:37;11.50;66.20
19192;DHT22;9728;48.194;16.346;2023-02-01T03:19:46;11.60;65.80
19192;DHT22;9728;48.194;16.346;2023-02-01T03:24:55;11.60;65.90
19192;DHT22;9728;48.194;16.346;2023-02-01T03:30:05;11.50;66.10
19192;DHT22;9728;48.194;16.346;2023-02-01T03:35:11;11.60;66.10
19192;DHT22;9728;48.194;16.346;2023-02-01T03:40:18;11.60;65.60
19192;DHT22;9728;48.194;16.346;2023-02-01T03:45:26;11.60;66.00
19192;DHT22;9728;48.194;16.346;2023-02-01T03:50:31;11.60;65.00
19192;DHT22;9728;48.194;16.346;2023-02-01T03:55:38;11.70;65.00
19192;DHT22;9728;48.194;16.346;2023-02-01T04:00:45;11.70;65.00
19192;DHT22;9728;48.194;16.346;2023-02-01T04:05:49;11.70;65.20
19192;DHT22;9728;48.194;16.346;2023-02-01T04:10:56;11.80;65.80
19192;DHT22;9728;48.194;16.346;2023-02-01T04:15:59;11.80;65.80
19192;DHT22;9728;48.194;16.346;2023-02-01T04:21:03;11.80;65.50
19192;DHT22;9728;48.194;16.346;2023-02-01T04:26:08;11.90;65.60
19192;DHT22;9728;48.194;16.346;2023-02-01T04:31:11;11.90;65.30
19192;DHT22;9728;48.194;16.346;2023-02-01T04:36:15;11.90;65.00
19192;DHT22;9728;48.194;16.346;2023-02-01T04:41:23;12.00;65.20
19192;DHT22;9728;48.194;16.346;2023-02-01T04:46:26;12.00;65.70
19192;DHT22;9728;48.194;16.346;2023-02-01T04:51:29;12.00;65.90
19192;DHT22;9728;48.194;16.346;2023-02-01T04:56:34;12.00;65.60
19192;DHT22;9728;48.194;16.346;2023-02-01T05:01:38;12.10;65.70
19192;DHT22;9728;48.194;16.346;2023-02-01T05:06:42;12.10;65.10
19192;DHT22;9728;48.194;16.346;2023-02-01T05:11:46;12.10;65.50
19192;DHT22;9728;48.194;16.346;2023-02-01T05:17:08;12.10;65.90
19192;DHT22;9728;48.194;16.346;2023-02-01T05:22:11;12.10;65.10
19192;DHT22;9728;48.194;16.346;2023-02-01T05:27:16;12.10;65.30
19192;DHT22;9728;48.194;16.346;2023-02-01T05:32:19;12.10;65.10
19192;DHT22;9728;48.194;16.346;2023-02-01T05:37:24;12.10;65.10
19192;DHT22;9728;48.194;16.346;2023-02-01T05:42:29;12.10;64.40
19192;DHT22;9728;48.194;16.346;2023-02-01T05:47:32;12.20;64.50
19192;DHT22;9728;48.194;16.346;2023-02-01T05:52:36;12.20;64.40
19192;DHT22;9728;48.194;16.346;2023-02-01T05:57:40;12.30;64.40
19192;DHT22;9728;48.194;16.346;2023-02-01T06:02:44;12.30;64.30
19192;DHT22;9728;48.194;16.346;2023-02-01T06:07:48;12.30;64.20
19192;DHT22;9728;48.194;16.346;2023-02-01T06:12:53;12.40;64.20
19192;DHT22;9728;48.194;16.346;2023-02-01T06:17:57;12.40;64.20
19192;DHT22;9728;48.194;16.346;2023-02-01T06:23:00;12.40;64.00
19192;DHT22;9728;48.194;16.346;2023-02-01T06:28:05;12.40;64.00
19192;DHT22;9728;48.194;16.346;2023-02-01T06:33:10;12.40;64.10
19192;DHT22;9728;48.194;16.346;2023-02-01T06:38:13;12.30;64.20
19192;DHT22;9728;48.194;16.346;2023-02-01T06:43:18;12.30;64.20
19192;DHT22;9728;48.194;16.346;2023-02-01T06:48:22;12.30;65.50
19192;DHT22;9728;48.194;16.346;2023-02-01T06:53:25;12.40;68.20
19192;DHT22;9728;48.194;16.346;2023-02-01T06:58:32;12.60;70.20
19192;DHT22;9728;48.194;16.346;2023-02-01T07:03:36;13.00;71.80
19192;DHT22;9728;48.194;16.346;2023-02-01T07:08:39;13.40;72.60
19192;DHT22;9728;48.194;16.346;2023-02-01T07:13:45;13.90;72.70
19192;DHT22;9728;48.194;16.346;2023-02-01T07:18:50;14.50;73.10
19192;DHT22;9728;48.194;16.346;2023-02-01T07:23:53;14.90;73.00
19192;DHT22;9728;48.194;16.346;2023-02-01T07:28:58;15.50;72.50
19192;DHT22;9728;48.194;16.346;2023-02-01T07:34:01;15.90;68.70
19192;DHT22;9728;48.194;16.346;2023-02-01T07:39:05;16.20;66.10
19192;DHT22;9728;48.194;16.346;2023-02-01T07:44:10;16.20;63.80
19192;DHT22;9728;48.194;16.346;2023-02-01T07:49:13;16.10;62.60
19192;DHT22;9728;48.194;16.346;2023-02-01T07:54:17;15.80;62.30
19192;DHT22;9728;48.194;16.346;2023-02-01T07:59:22;15.60;62.30
19192;DHT22;9728;48.194;16.346;2023-02-01T08:04:25;15.20;61.80
19192;DHT22;9728;48.194;16.346;2023-02-01T08:09:28;15.00;62.20
19192;DHT22;9728;48.194;16.346;2023-02-01T08:14:34;14.70;62.10
19192;DHT22;9728;48.194;16.346;2023-02-01T08:19:37;14.50;62.50
19192;DHT22;9728;48.194;16.346;2023-02-01T08:24:41;14.40;62.90
19192;DHT22;9728;48.194;16.346;2023-02-01T08:29:45;14.30;63.40
19192;DHT22;9728;48.194;16.346;2023-02-01T08:34:49;14.20;63.40
19192;DHT22;9728;48.194;16.346;2023-02-01T08:39:52;14.00;63.60
19192;DHT22;9728;48.194;16.346;2023-02-01T08:44:57;14.00;63.60
19192;DHT22;9728;48.194;16.346;2023-02-01T08:50:01;13.90;63.80
19192;DHT22;9728;48.194;16.346;2023-02-01T08:55:05;13.80;63.70
19192;DHT22;9728;48.194;16.346;2023-02-01T09:00:13;13.80;63.90
19192;DHT22;9728;48.194;16.346;2023-02-01T09:05:17;13.80;63.70
19192;DHT22;9728;48.194;16.346;2023-02-01T09:10:24;13.70;63.70
19192;DHT22;9728;48.194;16.346;2023-02-01T09:15:40;13.70;63.60
19192;DHT22;9728;48.194;16.346;2023-02-01T09:20:43;13.70;63.60
19192;DHT22;9728;48.194;16.346;2023-02-01T09:25:47;13.60;63.70
19192;DHT22;9728;48.194;16.346;2023-02-01T09:30:57;13.60;63.90
19192;DHT22;9728;48.194;16.346;2023-02-01T09:36:04;13.50;64.00
19192;DHT22;9728;48.194;16.346;2023-02-01T09:41:20;13.50;64.00
19192;DHT22;9728;48.194;16.346;2023-02-01T09:46:29;13.50;64.10
19192;DHT22;9728;48.194;16.346;2023-02-01T09:51:37;13.40;64.30
19192;DHT22;9728;48.194;16.346;2023-02-01T09:56:46;13.40;64.40
19192;DHT22;9728;48.194;16.346;2023-02-01T10:01:53;13.40;64.50
19192;DHT22;9728;48.194;16.346;2023-02-01T10:07:06;13.30;64.50
19192;DHT22;9728;48.194;16.346;2023-02-01T10:12:44;13.30;64.90
19192;DHT22;9728;48.194;16.346;2023-02-01T10:18:13;13.20;65.00
19192;DHT22;9728;48.194;16.346;2023-02-01T10:28:44;13.20;65.00
19192;DHT22;9728;48.194;16.346;2023-02-01T10:33:52;13.20;65.00
19192;DHT22;9728;48.194;16.346;2023-02-01T10:38:59;13.10;65.10
19192;DHT22;9728;48.194;16.346;2023-02-01T10:44:04;13.10;65.20
19192;DHT22;9728;48.194;16.346;2023-02-01T10:49:16;13.10;65.20
19192;DHT22;9728;48.194;16.346;2023-02-01T10:54:23;13.10;65.40
19192;DHT22;9728;48.194;16.346;2023-02-01T10:59:34;13.20;65.40
19192;DHT22;9728;48.194;16.346;2023-02-01T11:04:39;13.20;65.40
19192;DHT22;9728;48.194;16.346;2023-02-01T11:09:49;13.20;65.50
19192;DHT22;9728;48.194;16.346;2023-02-01T11:14:58;13.20;65.60
19192;DHT22;9728;48.194;16.346;2023-02-01T11:20:12;13.10;65.80
19192;DHT22;9728;48.194;16.346;2023-02-01T11:25:17;13.10;66.00
19192;DHT22;9728;48.194;16.346;2023-02-01T11:30:30;13.10;65.80
19192;DHT22;9728;48.194;16.346;2023-02-01T11:35:37;13.10;66.20
19192;DHT22;9728;48.194;16.346;2023-02-01T11:40:42;13.10;66.00
19192;DHT22;9728;48.194;16.346;2023-02-01T11:45:54;13.10;65.80
19192;DHT22;9728;48.194;16.346;2023-02-01T11:51:23;13.00;66.30
19192;DHT22;9728;48.194;16.346;2023-02-01T11:56:36;12.90;66.70
19192;DHT22;9728;48.194;16.346;2023-02-01T12:02:02;12.90;66.20
19192;DHT22;9728;48.194;16.346;2023-02-01T12:07:17;12.90;66.50
19192;DHT22;9728;48.194;16.346;2023-02-01T12:12:31;12.90;66.60
19192;DHT22;9728;48.194;16.346;2023-02-01T12:23:43;12.90;67.40
19192;DHT22;9728;48.194;16.346;2023-02-01T12:29:07;12.90;67.30
19192;DHT22;9728;48.194;16.346;2023-02-01T12:34:32;12.90;67.60
19192;DHT22;9728;48.194;16.346;2023-02-01T12:39:44;13.00;67.70
19192;DHT22;9728;48.194;16.346;2023-02-01T12:44:53;13.00;67.10
19192;DHT22;9728;48.194;16.346;2023-02-01T12:50:02;13.00;67.30
19192;DHT22;9728;48.194;16.346;2023-02-01T12:55:16;13.10;67.40
19192;DHT22;9728;48.194;16.346;2023-02-01T13:00:27;13.10;67.80
19192;DHT22;9728;48.194;16.346;2023-02-01T13:05:46;13.30;69.90
19192;DHT22;9728;48.194;16.346;2023-02-01T13:10:56;13.20;70.10
19192;DHT22;9728;48.194;16.346;2023-02-01T13:16:06;13.30;70.00
19192;DHT22;9728;48.194;16.346;2023-02-01T13:21:16;13.40;70.00
19192;DHT22;9728;48.194;16.346;2023-02-01T13:26:21;13.40;70.20
19192;DHT22;9728;48.194;16.346;2023-02-01T13:31:36;13.50;70.10
19192;DHT22;9728;48.194;16.346;2023-02-01T13:36:54;13.50;69.70
19192;DHT22;9728;48.194;16.346;2023-02-01T13:42:04;13.60;69.00
19192;DHT22;9728;48.194;16.346;2023-02-01T13:47:16;13.70;68.70
19192;DHT22;9728;48.194;16.346;2023-02-01T13:52:28;13.70;68.50
19192;DHT22;9728;48.194;16.346;2023-02-01T13:57:37;13.80;68.20
19192;DHT22;9728;48.194;16.346;2023-02-01T14:03:06;13.80;68.20
19192;DHT22;9728;48.194;16.346;2023-02-01T14:08:13;13.80;67.80
19192;DHT22;9728;48.194;16.346;2023-02-01T14:13:26;13.80;67.80
19192;DHT22;9728;48.194;16.346;2023-02-01T14:18:59;13.80;68.00
19192;DHT22;9728;48.194;16.346;2023-02-01T14:24:15;13.80;67.10
19192;DHT22;9728;48.194;16.346;2023-02-01T14:29:30;13.70;67.30
19192;DHT22;9728;48.194;16.346;2023-02-01T14:34:37;13.70;67.90
19192;DHT22;9728;48.194;16.346;2023-02-01T14:39:54;13.70;67.80
19192;DHT22;9728;48.194;16.346;2023-02-01T14:50:38;13.60;67.80
19192;DHT22;9728;48.194;16.346;2023-02-01T14:55:44;13.50;67.90
19192;DHT22;9728;48.194;16.346;2023-02-01T15:00:53;13.50;67.80
19192;DHT22;9728;48.194;16.346;2023-02-01T15:05:59;13.50;67.50
19192;DHT22;9728;48.194;16.346;2023-02-01T15:11:08;13.50;68.20
19192;DHT22;9728;48.194;16.346;2023-02-01T15:16:15;13.40;68.40
19192;DHT22;9728;48.194;16.346;2023-02-01T15:21:22;13.30;68.30
19192;DHT22;9728;48.194;16.346;2023-02-01T15:26:32;13.30;68.10
19192;DHT22;9728;48.194;16.346;2023-02-01T15:31:37;13.20;68.30
19192;DHT22;9728;48.194;16.346;2023-02-01T15:36:46;13.10;68.50
19192;DHT22;9728;48.194;16.346;2023-02-01T15:42:10;13.10;68.90
19192;DHT22;9728;48.194;16.346;2023-02-01T15:47:21;13.00;68.40
19192;DHT22;9728;48.194;16.346;2023-02-01T15:52:35;13.00;68.30
19192;DHT22;9728;48.194;16.346;2023-02-01T15:57:40;12.90;67.70
19192;DHT22;9728;48.194;16.346;2023-02-01T16:02:52;13.00;68.40
19192;DHT22;9728;48.194;16.346;2023-02-01T16:08:00;13.00;68.00
19192;DHT22;9728;48.194;16.346;2023-02-01T16:13:05;12.90;67.70
19192;DHT22;9728;48.194;16.346;2023-02-01T16:18:11;12.80;67.50
19192;DHT22;9728;48.194;16.346;2023-02-01T16:23:17;12.80;67.90
19192;DHT22;9728;48.194;16.346;2023-02-01T16:28:22;12.80;68.60
19192;DHT22;9728;48.194;16.346;2023-02-01T16:33:26;12.70;68.00
19192;DHT22;9728;48.194;16.346;2023-02-01T16:38:32;12.80;67.30
19192;DHT22;9728;48.194;16.346;2023-02-01T16:43:35;12.60;67.30
19192;DHT22;9728;48.194;16.346;2023-02-01T16:48:42;12.70;67.70
19192;DHT22;9728;48.194;16.346;2023-02-01T16:53:49;12.70;67.70
19192;DHT22;9728;48.194;16.346;2023-02-01T16:58:56;12.70;67.70
19192;DHT22;9728;48.194;16.346;2023-02-01T17:04:00;12.40;66.90
19192;DHT22;9728;48.194;16.346;2023-02-01T17:09:06;12.40;67.60
19192;DHT22;9728;48.194;16.346;2023-02-01T17:14:15;12.50;69.30
19192;DHT22;9728;48.194;16.346;2023-02-01T17:19:23;12.70;69.10
19192;DHT22;9728;48.194;16.346;2023-02-01T17:24:32;12.70;68.30
19192;DHT22;9728;48.194;16.346;2023-02-01T17:29:50;12.60;67.60
19192;DHT22;9728;48.194;16.346;2023-02-01T17:34:56;12.60;67.80
19192;DHT22;9728;48.194;16.346;2023-02-01T17:40:04;12.70;67.80
19192;DHT22;9728;48.194;16.346;2023-02-01T17:45:22;12.70;67.90
19192;DHT22;9728;48.194;16.346;2023-02-01T17:50:31;12.70;68.10
19192;DHT22;9728;48.194;16.346;2023-02-01T17:55:40;12.70;67.70
19192;DHT22;9728;48.194;16.346;2023-02-01T18:00:48;12.70;67.90
19192;DHT22;9728;48.194;16.346;2023-02-01T18:05:53;12.70;67.70
19192;DHT22;9728;48.194;16.346;2023-02-01T18:10:59;12.70;67.70
19192;DHT22;9728;48.194;16.346;2023-02-01T18:16:05;12.60;67.80
19192;DHT22;9728;48.194;16.346;2023-02-01T18:21:10;12.60;67.80
19192;DHT22;9728;48.194;16.346;2023-02-01T18:26:18;12.60;67.70
19192;DHT22;9728;48.194;16.346;2023-02-01T18:31:24;12.70;68.00
19192;DHT22;9728;48.194;16.346;2023-02-01T18:36:30;12.60;68.10
19192;DHT22;9728;48.194;16.346;2023-02-01T18:41:38;12.40;67.70
19192;DHT22;9728;48.194;16.346;2023-02-01T18:46:44;12.60;68.00
19192;DHT22;9728;48.194;16.346;2023-02-01T18:51:49;12.40;68.30
19192;DHT22;9728;48.194;16.346;2023-02-01T18:56:57;12.30;68.40
19192;DHT22;9728;48.194;16.346;2023-02-01T19:02:02;12.30;68.20
19192;DHT22;9728;48.194;16.346;2023-02-01T19:07:09;12.40;68.20
19192;DHT22;9728;48.194;16.346;2023-02-01T19:12:15;12.40;68.00
19192;DHT22;9728;48.194;16.346;2023-02-01T19:17:22;12.40;68.70
19192;DHT22;9728;48.194;16.346;2023-02-01T19:22:27;12.60;68.50
19192;DHT22;9728;48.194;16.346;2023-02-01T19:27:34;12.50;68.40
19192;DHT22;9728;48.194;16.346;2023-02-01T19:32:39;12.60;68.60
19192;DHT22;9728;48.194;16.346;2023-02-01T19:37:46;12.50;68.00
19192;DHT22;9728;48.194;16.346;2023-02-01T19:42:53;12.50;68.00
19192;DHT22;9728;48.194;16.346;2023-02-01T19:47:59;12.40;68.50
19192;DHT22;9728;48.194;16.346;2023-02-01T19:53:08;12.50;67.90
19192;DHT22;9728;48.194;16.346;2023-02-01T19:58:18;12.50;67.80
19192;DHT22;9728;48.194;16.346;2023-02-01T20:03:30;12.50;67.70
19192;DHT22;9728;48.194;16.346;2023-02-01T20:08:35;12.40;67.60
19192;DHT22;9728;48.194;16.346;2023-02-01T20:13:44;12.50;67.60
19192;DHT22;9728;48.194;16.346;2023-02-01T20:18:49;12.40;67.40
19192;DHT22;9728;48.194;16.346;2023-02-01T20:23:57;12.50;67.20
19192;DHT22;9728;48.194;16.346;2023-02-01T20:29:06;12.50;67.20
19192;DHT22;9728;48.194;16.346;2023-02-01T20:34:12;12.50;67.00
19192;DHT22;9728;48.194;16.346;2023-02-01T20:39:17;12.50;66.80
19192;DHT22;9728;48.194;16.346;2023-02-01T20:44:24;12.50;66.80
19192;DHT22;9728;48.194;16.346;2023-02-01T20:49:29;12.40;66.90
19192;DHT22;9728;48.194;16.346;2023-02-01T20:54:36;12.50;67.00
19192;DHT22;9728;48.194;16.346;2023-02-01T20:59:43;12.50;67.40
19192;DHT22;9728;48.194;16.346;2023-02-01T21:04:53;12.30;67.20
19192;DHT22;9728;48.194;16.346;2023-02-01T21:09:59;12.40;67.20
19192;DHT22;9728;48.194;16.346;2023-02-01T21:15:05;12.40;67.60
19192;DHT22;9728;48.194;16.346;2023-02-01T21:20:11;12.50;67.80
19192;DHT22;9728;48.194;16.346;2023-02-01T21:25:15;12.40;67.90
19192;DHT22;9728;48.194;16.346;2023-02-01T21:30:20;12.60;67.60
19192;DHT22;9728;48.194;16.346;2023-02-01T21:35:25;12.50;67.30
19192;DHT22;9728;48.194;16.346;2023-02-01T21:40:29;12.60;67.40
19192;DHT22;9728;48.194;16.346;2023-02-01T21:45:34;12.50;66.90
19192;DHT22;9728;48.194;16.346;2023-02-01T21:50:40;12.50;67.00
19192;DHT22;9728;48.194;16.346;2023-02-01T21:55:44;12.40;67.00
19192;DHT22;9728;48.194;16.346;2023-02-01T22:00:49;12.50;66.60
19192;DHT22;9728;48.194;16.346;2023-02-01T22:05:52;12.50;66.20
19192;DHT22;9728;48.194;16.346;2023-02-01T22:10:57;12.50;65.80
19192;DHT22;9728;48.194;16.346;2023-02-01T22:16:02;12.50;65.50
19192;DHT22;9728;48.194;16.346;2023-02-01T22:21:06;12.60;65.40
19192;DHT22;9728;48.194;16.346;2023-02-01T22:26:11;12.50;65.40
19192;DHT22;9728;48.194;16.346;2023-02-01T22:31:17;12.60;65.40
19192;DHT22;9728;48.194;16.346;2023-02-01T22:36:20;12.50;65.10
19192;DHT22;9728;48.194;16.346;2023-02-01T22:41:25;12.50;65.20
19192;DHT22;9728;48.194;16.346;2023-02-01T22:46:30;12.50;65.30
19192;DHT22;9728;48.194;16.346;2023-02-01T22:51:34;12.50;65.20
19192;DHT22;9728;48.194;16.346;2023-02-01T22:56:37;12.50;65.30
19192;DHT22;9728;48.194;16.346;2023-02-01T23:01:42;12.50;65.20
19192;DHT22;9728;48.194;16.346;2023-02-01T23:06:47;12.50;65.20
19192;DHT22;9728;48.194;16.346;2023-02-01T23:11:52;12.50;65.30
19192;DHT22;9728;48.194;16.346;2023-02-01T23:16:57;12.50;65.30
19192;DHT22;9728;48.194;16.346;2023-02-01T23:22:00;12.50;65.80
19192;DHT22;9728;48.194;16.346;2023-02-01T23:27:04;12.40;66.10
19192;DHT22;9728;48.194;16.346;2023-02-01T23:32:09;12.40;66.30
19192;DHT22;9728;48.194;16.346;2023-02-01T23:37:12;12.30;66.50
19192;DHT22;9728;48.194;16.346;2023-02-01T23:42:15;12.40;66.30
19192;DHT22;9728;48.194;16.346;2023-02-01T23:47:20;12.40;66.20
19192;DHT22;9728;48.194;16.346;2023-02-01T23:52:23;12.30;65.90
19192;DHT22;9728;48.194;16.346;2023-02-01T23:57:27;12.30;65.80
